createdAt,value
2022-09-28T00:02:25.815Z,94.36
2022-09-28T00:04:52.787Z,94.71
2022-09-28T00:07:19.653Z,95.28
2022-09-28T00:09:46.551Z,94.64
2022-09-28T00:12:13.484Z,96.24
2022-09-28T00:14:40.728Z,96.54
2022-09-28T00:17:08.405Z,96.68
2022-09-28T00:19:35.366Z,97.66
2022-09-28T00:22:02.208Z,99.70
2022-09-28T00:24:30.576Z,99.64
2022-09-28T00:27:01.280Z,96.48
2022-09-28T00:29:30.091Z,95.85
2022-09-28T00:32:02.461Z,96.21
2022-09-28T00:34:32.079Z,98.28
2022-09-28T00:36:59.708Z,99.34
2022-09-28T00:39:27.229Z,98.63
2022-09-28T00:41:55.110Z,98.79
2022-09-28T00:44:24.846Z,99.63
2022-09-28T00:47:21.649Z,100.00
2022-09-28T00:50:03.138Z,100.00
2022-09-28T00:52:45.085Z,100.00
2022-09-28T00:55:28.864Z,100.00
2022-09-28T00:57:59.242Z,100.00
2022-09-28T01:00:26.339Z,100.00
2022-09-28T01:02:53.474Z,100.00
2022-09-28T01:05:22.534Z,100.00
2022-09-28T01:07:49.629Z,100.00
2022-09-28T01:10:16.731Z,100.00
2022-09-28T01:12:43.728Z,100.00
2022-09-28T01:15:11.112Z,100.00
2022-09-28T01:18:07.555Z,100.00
2022-09-28T01:20:51.367Z,100.00
2022-09-28T01:23:24.425Z,100.00
2022-09-28T01:26:25.432Z,100.00
2022-09-28T01:29:02.562Z,100.00
2022-09-28T01:31:33.221Z,100.00
2022-09-28T01:34:10.560Z,100.00
2022-09-28T01:36:44.328Z,100.00
2022-09-28T01:39:16.841Z,100.00
2022-09-28T01:41:48.321Z,100.00
2022-09-28T01:44:20.051Z,100.00
2022-09-28T01:46:50.180Z,100.00
2022-09-28T01:49:36.199Z,100.00
2022-09-28T01:52:20.574Z,100.00
2022-09-28T01:54:54.526Z,100.00
2022-09-28T01:57:33.633Z,100.00
2022-09-28T02:00:13.187Z,100.00
2022-09-28T02:02:54.038Z,100.00
2022-09-28T02:05:32.583Z,100.00
2022-09-28T02:08:20.554Z,99.73
2022-09-28T02:11:15.669Z,99.91
2022-09-28T02:13:51.037Z,100.00
2022-09-28T02:16:36.600Z,100.00
2022-09-28T02:19:04.683Z,100.00
2022-09-28T02:21:43.138Z,100.00
2022-09-28T02:24:23.357Z,100.00
2022-09-28T02:26:55.454Z,100.00
2022-09-28T02:29:23.427Z,100.00
2022-09-28T02:31:51.830Z,100.00
2022-09-28T02:34:19.737Z,100.00
2022-09-28T02:36:47.949Z,100.00
2022-09-28T02:39:17.879Z,99.97
2022-09-28T02:42:19.475Z,98.50
2022-09-28T02:45:12.869Z,100.00
2022-09-28T02:48:05.258Z,99.86
2022-09-28T02:50:51.037Z,98.89
2022-09-28T02:53:35.381Z,100.00
2022-09-28T02:56:11.802Z,100.00
2022-09-28T02:59:02.568Z,100.00
2022-09-28T03:01:48.413Z,100.00
2022-09-28T03:04:36.694Z,97.66
2022-09-28T03:07:17.934Z,96.79
2022-09-28T03:10:10.275Z,98.89
2022-09-28T03:12:39.313Z,98.69
2022-09-28T03:15:31.687Z,98.76
2022-09-28T03:18:00.331Z,100.00
2022-09-28T03:20:29.088Z,100.00
2022-09-28T03:23:22.721Z,100.00
2022-09-28T03:25:43.271Z,100.00
2022-09-28T03:28:10.173Z,99.71
2022-09-28T03:30:39.990Z,98.70
2022-09-28T03:33:07.283Z,100.00
2022-09-28T03:35:34.411Z,100.00
2022-09-28T03:38:01.278Z,100.00
2022-09-28T03:40:30.851Z,100.00
2022-09-28T03:42:57.806Z,100.00
2022-09-28T03:45:25.479Z,100.00
2022-09-28T03:47:52.951Z,100.00
2022-09-28T03:50:19.818Z,99.49
2022-09-28T03:52:48.611Z,98.21
2022-09-28T03:55:15.896Z,95.91
2022-09-28T03:57:43.081Z,95.96
2022-09-28T04:00:10.871Z,97.18
2022-09-28T04:02:40.819Z,97.90
2022-09-28T04:05:09.386Z,94.58
2022-09-28T04:07:37.858Z,92.74
2022-09-28T04:10:05.030Z,96.47
2022-09-28T04:12:32.409Z,96.92
2022-09-28T04:14:59.286Z,96.72
2022-09-28T04:17:26.282Z,94.80
2022-09-28T04:19:53.581Z,93.02
2022-09-28T04:22:39.979Z,91.93
2022-09-28T04:25:07.461Z,91.93
2022-09-28T04:27:53.485Z,91.36
2022-09-28T04:30:20.782Z,90.61
2022-09-28T04:32:47.952Z,87.66
2022-09-28T04:35:15.158Z,84.05
2022-09-28T04:37:42.109Z,79.87
2022-09-28T04:40:09.808Z,75.54
2022-09-28T04:42:37.539Z,71.79
2022-09-28T04:45:04.973Z,68.12
2022-09-28T04:47:34.995Z,66.28
2022-09-28T04:50:17.206Z,69.49
2022-09-28T04:53:02.684Z,69.53
2022-09-28T04:55:32.487Z,67.22
2022-09-28T04:58:03.419Z,64.71
2022-09-28T05:00:33.243Z,63.90
2022-09-28T05:03:07.813Z,61.66
2022-09-28T05:05:53.628Z,60.03
2022-09-28T05:08:39.509Z,58.63
2022-09-28T05:11:10.144Z,56.79
2022-09-28T05:13:45.676Z,54.92
2022-09-28T05:16:16.456Z,53.16
2022-09-28T05:19:03.625Z,49.99
2022-09-28T05:21:31.010Z,47.01
2022-09-28T05:23:58.472Z,43.65
2022-09-28T05:26:26.126Z,44.31
2022-09-28T05:28:53.193Z,44.80
2022-09-28T05:31:38.744Z,46.13
2022-09-28T05:34:08.272Z,46.93
2022-09-28T05:36:35.876Z,43.19
2022-09-28T05:39:04.140Z,39.26
2022-09-28T05:41:31.447Z,36.97
2022-09-28T05:44:00.073Z,33.49
2022-09-28T05:46:27.246Z,30.95
2022-09-28T05:48:54.578Z,31.00
2022-09-28T05:51:24.706Z,33.18
2022-09-28T05:53:55.457Z,36.21
2022-09-28T05:56:23.583Z,35.49
2022-09-28T05:58:52.331Z,36.54
2022-09-28T06:01:21.633Z,36.23
2022-09-28T06:03:49.271Z,37.77
2022-09-28T06:06:16.645Z,37.90
2022-09-28T06:08:48.484Z,37.67
2022-09-28T06:11:33.946Z,37.38
2022-09-28T06:14:07.733Z,37.64
2022-09-28T06:16:35.220Z,37.65
2022-09-28T06:19:02.621Z,35.66
2022-09-28T06:21:56.221Z,31.78
2022-09-28T06:24:25.419Z,31.38
2022-09-28T06:26:52.484Z,35.50
2022-09-28T06:29:20.376Z,34.14
2022-09-28T06:31:48.331Z,35.26
2022-09-28T06:34:15.667Z,36.08
2022-09-28T06:36:44.237Z,36.22
2022-09-28T06:39:11.231Z,35.98
2022-09-28T06:41:38.279Z,34.97
2022-09-28T06:44:14.180Z,34.46
2022-09-28T06:46:59.447Z,34.51
2022-09-28T06:49:46.242Z,32.96
2022-09-28T06:52:39.133Z,33.44
2022-09-28T06:55:33.687Z,30.96
2022-09-28T06:58:05.082Z,33.58
2022-09-28T07:00:37.072Z,32.64
2022-09-28T07:03:06.742Z,33.62
2022-09-28T07:05:54.316Z,30.71
2022-09-28T07:08:39.639Z,30.36
2022-09-28T07:11:41.972Z,29.78
2022-09-28T07:14:45.591Z,28.98
2022-09-28T07:17:14.136Z,33.38
2022-09-28T07:19:42.908Z,32.33
2022-09-28T07:22:18.561Z,28.71
2022-09-28T07:24:48.586Z,29.51
2022-09-28T07:27:59.728Z,32.09
2022-09-28T07:30:47.156Z,33.43
2022-09-28T07:33:19.075Z,33.67
2022-09-28T07:35:53.514Z,33.20
2022-09-28T07:38:22.744Z,32.69
2022-09-28T07:41:07.977Z,31.68
2022-09-28T07:43:35.963Z,29.41
2022-09-28T07:46:03.813Z,26.67
2022-09-28T07:48:36.802Z,27.20
2022-09-28T07:51:04.368Z,25.68
2022-09-28T07:53:38.711Z,26.23
2022-09-28T07:56:25.478Z,26.16
2022-09-28T07:59:04.514Z,25.80
2022-09-28T08:01:40.534Z,26.47
2022-09-28T08:04:10.175Z,27.22
2022-09-28T08:06:40.633Z,26.83
2022-09-28T08:09:09.995Z,26.40
2022-09-28T08:12:13.506Z,26.33
2022-09-28T08:14:57.618Z,27.08
2022-09-28T08:17:47.370Z,28.31
2022-09-28T08:20:35.005Z,26.70
2022-09-28T08:23:07.257Z,26.68
2022-09-28T08:25:38.959Z,26.01
2022-09-28T08:28:09.936Z,25.64
2022-09-28T08:30:45.850Z,24.36
2022-09-28T08:33:34.027Z,24.16
2022-09-28T08:36:20.802Z,23.72
2022-09-28T08:39:26.289Z,24.90
2022-09-28T08:42:21.099Z,25.46
2022-09-28T08:45:19.867Z,25.87
2022-09-28T08:48:30.745Z,24.56
2022-09-28T08:51:23.721Z,27.02
2022-09-28T08:54:39.073Z,27.00
2022-09-28T08:57:14.538Z,28.81
2022-09-28T08:59:58.499Z,28.94
2022-09-28T09:02:39.739Z,26.84
2022-09-28T09:05:20.923Z,24.46
2022-09-28T09:08:35.166Z,25.98
2022-09-28T09:11:27.269Z,27.71
2022-09-28T09:13:57.291Z,27.43
2022-09-28T09:16:40.785Z,26.39
2022-09-28T09:19:27.529Z,26.66
2022-09-28T09:22:46.546Z,26.00
2022-09-28T09:25:54.995Z,25.40
2022-09-28T09:28:35.428Z,25.54
2022-09-28T09:31:38.254Z,23.24
2022-09-28T09:34:41.552Z,22.80
2022-09-28T09:38:01.490Z,22.98
2022-09-28T09:44:28.153Z,21.15
2022-09-28T09:47:38.283Z,22.92
2022-09-28T09:50:30.210Z,24.44
2022-09-28T09:53:16.386Z,23.74
2022-09-28T09:55:51.068Z,22.57
2022-09-28T09:58:41.455Z,23.70
2022-09-28T10:01:29.410Z,23.22
2022-09-28T10:04:20.153Z,23.20
2022-09-28T10:06:49.939Z,23.84
2022-09-28T10:09:26.582Z,22.86
2022-09-28T10:11:56.826Z,22.78
2022-09-28T10:14:25.605Z,22.22
2022-09-28T10:17:02.531Z,21.23
2022-09-28T10:20:05.460Z,20.59
2022-09-28T10:23:02.200Z,22.21
2022-09-28T10:25:33.737Z,21.31
2022-09-28T10:28:03.207Z,20.52
2022-09-28T10:30:34.059Z,20.70
2022-09-28T10:33:02.595Z,21.34
2022-09-28T10:35:47.901Z,19.68
2022-09-28T10:38:18.959Z,19.30
2022-09-28T10:40:55.376Z,19.45
2022-09-28T10:44:06.455Z,19.58
2022-09-28T10:47:14.697Z,18.97
2022-09-28T10:49:47.283Z,18.59
2022-09-28T10:52:36.550Z,18.21
2022-09-28T10:55:33.720Z,18.46
2022-09-28T10:58:01.181Z,18.15
2022-09-28T11:00:43.345Z,19.90
2022-09-28T11:03:26.782Z,19.59
2022-09-28T11:06:00.572Z,20.82
2022-09-28T11:08:35.612Z,18.59
2022-09-28T11:11:13.931Z,18.54
2022-09-28T11:13:42.946Z,17.41
2022-09-28T11:16:23.521Z,17.28
2022-09-28T11:18:51.134Z,19.20
2022-09-28T11:21:26.680Z,19.27
2022-09-28T11:24:06.556Z,18.09
2022-09-28T11:26:41.051Z,19.19
2022-09-28T11:29:26.974Z,20.99
2022-09-28T11:32:43.280Z,22.35
2022-09-28T11:36:03.778Z,21.88
2022-09-28T11:38:50.923Z,20.23
2022-09-28T11:41:37.984Z,19.92
2022-09-28T11:44:33.679Z,19.83
2022-09-28T11:47:27.099Z,19.11
2022-09-28T11:50:01.337Z,19.68
2022-09-28T11:52:39.813Z,18.99
2022-09-28T11:55:33.364Z,19.11
2022-09-28T11:58:25.909Z,19.41
2022-09-28T12:01:08.436Z,19.30
2022-09-28T12:04:03.876Z,18.39
2022-09-28T12:06:41.195Z,17.16
2022-09-28T12:09:19.934Z,18.29
2022-09-28T12:12:10.199Z,18.64
2022-09-28T12:14:47.409Z,18.68
2022-09-28T12:17:23.520Z,18.87
2022-09-28T12:20:38.613Z,19.70
2022-09-28T12:23:14.358Z,19.56
2022-09-28T12:25:46.943Z,19.97
2022-09-28T12:28:25.677Z,20.41
2022-09-28T12:30:54.848Z,21.51
2022-09-28T12:33:21.835Z,20.70
2022-09-28T12:35:48.638Z,19.99
2022-09-28T12:38:31.011Z,19.70
2022-09-28T12:41:07.142Z,18.92
2022-09-28T12:43:55.553Z,17.87
2022-09-28T12:46:31.271Z,17.42
2022-09-28T12:50:33.421Z,18.81
2022-09-28T12:52:19.144Z,20.04
2022-09-28T12:54:54.894Z,19.55
2022-09-28T12:57:54.793Z,19.32
2022-09-28T13:00:24.766Z,18.89
2022-09-28T13:03:18.740Z,20.60
2022-09-28T13:05:57.902Z,20.30
2022-09-28T13:08:51.044Z,19.00
2022-09-28T13:11:44.116Z,18.98
2022-09-28T13:14:36.467Z,20.63
2022-09-28T13:17:22.031Z,19.21
2022-09-28T13:20:04.033Z,20.05
2022-09-28T13:22:30.887Z,21.33
2022-09-28T13:25:02.200Z,22.47
2022-09-28T13:27:40.649Z,22.44
2022-09-28T13:30:08.514Z,22.33
2022-09-28T13:32:38.994Z,22.00
2022-09-28T13:35:06.974Z,22.99
2022-09-28T13:37:34.839Z,22.34
2022-09-28T13:40:06.235Z,23.57
2022-09-28T13:42:45.280Z,23.15
2022-09-28T13:45:42.745Z,23.34
2022-09-28T13:48:20.627Z,23.05
2022-09-28T13:51:35.751Z,23.29
2022-09-28T13:54:21.066Z,23.43
2022-09-28T13:57:03.084Z,31.92
2022-09-28T13:59:32.486Z,33.42
2022-09-28T14:02:06.785Z,33.80
2022-09-28T14:04:57.249Z,35.10
2022-09-28T14:10:20.976Z,39.20
2022-09-28T14:12:51.409Z,40.30
2022-09-28T14:15:30.209Z,44.08
2022-09-28T14:18:33.640Z,45.57
2022-09-28T14:21:19.351Z,44.31
2022-09-28T14:24:11.237Z,46.98
2022-09-28T14:27:23.671Z,49.05
2022-09-28T14:30:25.814Z,50.49
2022-09-28T14:33:00.296Z,53.43
2022-09-28T14:35:40.416Z,56.18
2022-09-28T14:38:36.026Z,58.20
2022-09-28T14:41:10.104Z,60.45
2022-09-28T14:43:57.419Z,59.66
2022-09-28T14:46:34.046Z,60.32
2022-09-28T14:49:25.520Z,60.97
2022-09-28T14:51:55.998Z,60.23
2022-09-28T14:54:24.056Z,58.95
2022-09-28T14:56:54.280Z,57.29
2022-09-28T14:59:39.231Z,58.48
2022-09-28T15:02:19.336Z,57.96
2022-09-28T15:04:52.550Z,58.17
2022-09-28T15:07:42.383Z,57.65
2022-09-28T15:10:28.398Z,57.84
2022-09-28T15:12:57.248Z,58.75
2022-09-28T15:15:35.552Z,58.37
2022-09-28T15:18:44.038Z,57.87
2022-09-28T15:21:12.422Z,58.39
2022-09-28T15:23:41.910Z,59.32
2022-09-28T15:26:22.635Z,60.25
2022-09-28T15:28:49.725Z,60.65
2022-09-28T15:31:23.530Z,60.43
2022-09-28T15:34:09.162Z,61.82
2022-09-28T15:36:46.491Z,61.59
2022-09-28T15:39:21.078Z,61.33
2022-09-28T15:41:50.509Z,60.30
2022-09-28T15:44:35.367Z,60.86
2022-09-28T15:47:25.025Z,62.71
2022-09-28T15:52:56.546Z,66.14
2022-09-28T15:55:26.435Z,66.98
2022-09-28T15:58:16.677Z,66.22
2022-09-28T16:00:46.449Z,67.74
2022-09-28T16:03:16.118Z,69.91
2022-09-28T16:05:49.819Z,72.00
2022-09-28T16:08:37.061Z,72.08
2022-09-28T16:11:22.006Z,72.15
2022-09-28T16:14:02.866Z,69.76
2022-09-28T16:16:35.286Z,70.05
2022-09-28T16:19:03.676Z,71.50
2022-09-28T16:21:40.214Z,73.21
2022-09-28T16:24:08.672Z,75.35
2022-09-28T16:26:39.054Z,76.68
2022-09-28T16:29:25.992Z,79.09
2022-09-28T16:31:53.300Z,77.88
2022-09-28T16:34:24.890Z,75.38
2022-09-28T16:36:51.805Z,75.25
2022-09-28T16:39:19.848Z,76.46
2022-09-28T16:41:55.470Z,77.29
2022-09-28T16:44:28.520Z,77.82
2022-09-28T16:46:58.539Z,76.25
2022-09-28T16:49:26.413Z,75.82
2022-09-28T16:51:53.324Z,74.22
2022-09-28T16:54:40.769Z,72.25
2022-09-28T16:57:11.638Z,71.41
2022-09-28T16:59:38.694Z,72.42
2022-09-28T17:02:48.637Z,72.31
2022-09-28T17:05:07.315Z,72.09
2022-09-28T17:07:34.683Z,71.29
2022-09-28T17:10:01.681Z,72.78
2022-09-28T17:12:29.013Z,74.91
2022-09-28T17:14:56.037Z,74.50
2022-09-28T17:17:22.913Z,76.01
2022-09-28T17:19:49.764Z,77.10
2022-09-28T17:22:18.436Z,76.22
2022-09-28T17:24:46.229Z,75.68
2022-09-28T17:27:18.346Z,74.30
2022-09-28T17:29:45.500Z,74.52
2022-09-28T17:32:18.135Z,73.85
2022-09-28T17:34:51.527Z,75.05
2022-09-28T17:37:23.121Z,74.34
2022-09-28T17:39:49.947Z,74.88
2022-09-28T17:42:17.410Z,75.23
2022-09-28T17:44:44.309Z,76.54
2022-09-28T17:47:11.843Z,76.06
2022-09-28T17:49:39.025Z,76.83
2022-09-28T17:52:05.933Z,75.70
2022-09-28T17:54:33.972Z,75.39
2022-09-28T17:57:01.391Z,74.40
2022-09-28T17:59:28.889Z,73.24
2022-09-28T18:01:59.309Z,72.92
2022-09-28T18:04:50.683Z,73.84
2022-09-28T18:07:15.970Z,74.28
2022-09-28T18:09:42.912Z,74.21
2022-09-28T18:12:09.889Z,74.39
2022-09-28T18:14:37.089Z,73.88
2022-09-28T18:17:04.069Z,74.22
2022-09-28T18:19:32.302Z,73.31
2022-09-28T18:21:59.561Z,71.61
2022-09-28T18:24:26.720Z,70.46
2022-09-28T18:26:53.789Z,69.86
2022-09-28T18:29:20.670Z,69.51
2022-09-28T18:31:48.919Z,69.34
2022-09-28T18:34:15.934Z,69.46
2022-09-28T18:36:42.910Z,69.55
2022-09-28T18:39:09.812Z,70.78
2022-09-28T18:41:36.900Z,71.48
2022-09-28T18:44:03.794Z,71.92
2022-09-28T18:46:36.873Z,71.47
2022-09-28T18:49:04.777Z,70.98
2022-09-28T18:51:31.727Z,70.53
2022-09-28T18:53:58.635Z,70.44
2022-09-28T18:56:26.979Z,70.50
2022-09-28T18:58:54.118Z,70.27
2022-09-28T19:01:30.360Z,70.40
2022-09-28T19:04:02.167Z,71.21
2022-09-28T19:06:29.926Z,71.93
2022-09-28T19:08:57.034Z,71.73
2022-09-28T19:11:24.966Z,71.12
2022-09-28T19:13:53.437Z,71.01
2022-09-28T19:16:26.056Z,70.55
2022-09-28T19:18:53.876Z,71.21
2022-09-28T19:21:21.171Z,71.04
2022-09-28T19:23:49.828Z,70.67
2022-09-28T19:26:21.105Z,70.28
2022-09-28T19:28:49.014Z,70.14
2022-09-28T19:31:16.870Z,72.85
2022-09-28T19:33:46.583Z,76.42
2022-09-28T19:36:19.961Z,79.91
2022-09-28T19:38:46.860Z,82.10
2022-09-28T19:41:39.287Z,85.65
2022-09-28T19:44:21.292Z,81.76
2022-09-28T19:46:48.273Z,81.12
2022-09-28T19:49:19.757Z,81.55
2022-09-28T19:54:38.259Z,79.95
2022-09-28T19:57:08.110Z,79.59
2022-09-28T19:59:36.836Z,80.38
2022-09-28T20:02:06.090Z,81.00
2022-09-28T20:04:33.308Z,79.76
2022-09-28T20:07:00.246Z,77.80
2022-09-28T20:09:27.208Z,75.34
2022-09-28T20:11:54.427Z,77.04
2022-09-28T20:14:23.418Z,78.52
2022-09-28T20:16:52.891Z,80.10
2022-09-28T20:19:21.727Z,81.33
2022-09-28T20:21:49.145Z,80.28
2022-09-28T20:24:18.741Z,76.87
2022-09-28T20:26:46.154Z,76.96
2022-09-28T20:29:13.495Z,75.75
2022-09-28T20:31:40.673Z,76.03
2022-09-28T20:34:07.960Z,79.77
2022-09-28T20:36:35.038Z,80.50
2022-09-28T20:39:04.363Z,79.99
2022-09-28T20:41:36.922Z,77.29
2022-09-28T20:44:06.330Z,74.60
2022-09-28T20:46:35.382Z,74.49
2022-09-28T20:49:02.925Z,73.83
2022-09-28T20:51:29.861Z,73.73
2022-09-28T20:53:58.946Z,73.65
2022-09-28T20:56:28.446Z,74.83
2022-09-28T20:58:55.668Z,73.90
2022-09-28T21:01:25.448Z,73.68
2022-09-28T21:03:59.704Z,74.42
2022-09-28T21:06:31.770Z,72.96
2022-09-28T21:08:59.128Z,72.95
2022-09-28T21:11:28.197Z,73.07
2022-09-28T21:14:00.316Z,72.03
2022-09-28T21:16:29.109Z,72.33
2022-09-28T21:18:56.051Z,72.83
2022-09-28T21:21:24.449Z,75.49
2022-09-28T21:23:56.158Z,74.90
2022-09-28T21:26:25.662Z,74.83
2022-09-28T21:29:03.841Z,75.33
2022-09-28T21:31:37.187Z,76.28
2022-09-28T21:34:05.228Z,76.41
2022-09-28T21:36:33.058Z,76.02
2022-09-28T21:38:59.986Z,76.17
2022-09-28T21:41:26.918Z,83.74
2022-09-28T21:43:53.837Z,82.76
2022-09-28T21:46:20.945Z,82.09
2022-09-28T21:48:52.494Z,81.03
2022-09-28T21:51:19.829Z,80.79
2022-09-28T21:53:48.544Z,80.70
2022-09-28T21:56:15.446Z,80.35
2022-09-28T21:58:42.317Z,79.78
2022-09-28T22:01:18.322Z,79.54
2022-09-28T22:03:51.195Z,81.99
2022-09-28T22:06:20.475Z,83.75
2022-09-28T22:08:48.665Z,84.82
2022-09-28T22:11:18.814Z,84.57
2022-09-28T22:13:46.894Z,84.61
2022-09-28T22:16:16.614Z,84.02
2022-09-28T22:18:44.628Z,82.81
2022-09-28T22:21:22.856Z,81.09
2022-09-28T22:23:50.225Z,81.13
2022-09-28T22:26:25.252Z,80.62
2022-09-28T22:29:02.944Z,82.56
2022-09-28T22:31:33.315Z,83.40
2022-09-28T22:34:00.808Z,90.92
2022-09-28T22:36:28.549Z,91.04
2022-09-28T22:38:56.824Z,92.54
2022-09-28T22:41:25.033Z,92.34
2022-09-28T22:43:53.410Z,90.31
2022-09-28T22:46:23.685Z,89.81
2022-09-28T22:48:53.772Z,90.54
2022-09-28T22:51:21.638Z,91.36
2022-09-28T22:53:48.558Z,91.84
2022-09-28T22:56:18.682Z,91.90
2022-09-28T22:58:46.510Z,92.92
2022-09-28T23:01:19.826Z,93.50
2022-09-28T23:03:47.563Z,94.17
2022-09-28T23:06:16.706Z,94.56
2022-09-28T23:08:44.849Z,93.12
2022-09-28T23:11:11.754Z,92.67
2022-09-28T23:13:39.085Z,89.20
2022-09-28T23:16:08.178Z,92.68
2022-09-28T23:18:37.327Z,94.14
2022-09-28T23:21:06.623Z,83.31
2022-09-28T23:23:34.595Z,81.02
2022-09-28T23:26:14.207Z,83.89
2022-09-28T23:28:41.172Z,88.97
2022-09-28T23:31:19.902Z,89.68
2022-09-28T23:33:47.115Z,91.52
2022-09-28T23:36:14.884Z,91.29
2022-09-28T23:38:41.804Z,90.78
2022-09-28T23:41:09.395Z,89.05
2022-09-28T23:43:36.440Z,89.67
2022-09-28T23:46:04.865Z,88.83
2022-09-28T23:48:32.429Z,89.87
2022-09-28T23:50:59.559Z,90.48
2022-09-28T23:53:26.939Z,91.35
2022-09-28T23:55:54.388Z,91.81
2022-09-28T23:58:21.713Z,92.12
